Hickory, Louisiana
Current Conditions -  °F | °C
As of 9:35 PM on Friday 24 Oct 2014 (Local Time) from KOPL Reporting Station
Overcast Overcast  
Wind Chill: 53°   Ceiling: 200
Heat Index: 53°   Visibility: 10mi
Dew Point: 52°   Wind: 0mph
Humidity: 94%   Direction: NA
Pressure: 30.12"   Gusts: NA
Location:  30.9908°N, 92.0816°W
Report Text: KOPL 250235Z AUTO 00000KT 10SM OVC002 12/11 A3012 RMK AO2 T01190109
Loading
Personal Weather Stations






























Interactive Weather Map
Tropical Storm Tracking
New forecast layout! Learn more

10-Day Weather Forecast

Advertisements
Track Severe Weather on mobile